createdAt,value
2022-12-20T00:02:20.591Z,10.30
2022-12-20T00:04:50.743Z,8.77
2022-12-20T00:07:19.834Z,8.67
2022-12-20T00:09:48.416Z,9.40
2022-12-20T00:12:17.585Z,10.10
2022-12-20T00:15:19.996Z,10.33
2022-12-20T00:17:52.535Z,9.43
2022-12-20T00:20:22.337Z,10.13
2022-12-20T00:22:50.996Z,9.93
2022-12-20T00:25:20.760Z,8.80
2022-12-20T00:28:14.155Z,9.77
2022-12-20T00:30:42.490Z,9.47
2022-12-20T00:33:11.591Z,9.27
2022-12-20T00:35:44.784Z,9.60
2022-12-20T00:38:13.296Z,10.33
2022-12-20T00:40:41.804Z,8.53
2022-12-20T00:43:10.611Z,7.80
2022-12-20T00:45:39.162Z,7.83
2022-12-20T00:48:08.177Z,7.67
2022-12-20T00:50:37.128Z,8.33
2022-12-20T00:53:10.073Z,8.30
2022-12-20T00:55:43.114Z,7.70
2022-12-20T00:58:11.880Z,7.07
2022-12-20T01:00:41.453Z,8.00
2022-12-20T01:03:10.675Z,7.83
2022-12-20T01:06:09.611Z,8.00
2022-12-20T01:08:39.400Z,7.83
2022-12-20T01:11:10.109Z,7.57
2022-12-20T01:14:12.190Z,7.87
2022-12-20T01:16:42.485Z,8.33
2022-12-20T01:19:13.372Z,8.40
2022-12-20T01:21:45.100Z,8.03
2022-12-20T01:24:15.443Z,8.10
2022-12-20T01:26:44.076Z,8.00
2022-12-20T01:29:14.517Z,7.23
2022-12-20T01:31:43.728Z,7.80
2022-12-20T01:34:13.245Z,7.50
2022-12-20T01:36:42.530Z,7.33
2022-12-20T01:39:16.149Z,6.80
2022-12-20T01:41:46.266Z,7.93
2022-12-20T01:45:06.483Z,8.00
2022-12-20T01:47:38.244Z,7.57
2022-12-20T01:50:09.492Z,8.10
2022-12-20T01:52:41.261Z,8.03
2022-12-20T01:55:14.435Z,8.10
2022-12-20T01:57:48.088Z,7.43
2022-12-20T02:00:17.603Z,7.53
2022-12-20T02:02:48.820Z,7.70
2022-12-20T02:05:18.494Z,6.80
2022-12-20T02:07:50.479Z,8.23
2022-12-20T02:10:22.109Z,7.97
2022-12-20T02:12:54.969Z,8.07
2022-12-20T02:15:33.423Z,7.93
2022-12-20T02:18:15.241Z,7.20
2022-12-20T02:21:19.999Z,7.63
2022-12-20T02:24:14.523Z,7.73
2022-12-20T02:27:25.628Z,9.03
2022-12-20T02:30:20.485Z,8.37
2022-12-20T02:33:02.740Z,8.23
2022-12-20T02:35:34.008Z,7.70
2022-12-20T02:38:29.261Z,7.30
2022-12-20T02:41:25.033Z,7.03
2022-12-20T02:44:14.527Z,7.90
2022-12-20T02:46:45.705Z,7.17
2022-12-20T02:49:18.428Z,7.70
2022-12-20T02:51:50.721Z,7.33
2022-12-20T02:54:19.955Z,7.97
2022-12-20T02:56:53.984Z,7.83
2022-12-20T02:59:26.631Z,7.30
2022-12-20T03:01:58.606Z,7.67
2022-12-20T03:04:30.052Z,9.13
2022-12-20T03:07:00.931Z,7.97
2022-12-20T03:09:29.403Z,7.63
2022-12-20T03:11:58.259Z,8.70
2022-12-20T03:14:26.646Z,8.10
2022-12-20T03:16:56.838Z,8.03
2022-12-20T03:19:44.478Z,8.03
2022-12-20T03:22:38.725Z,8.33
2022-12-20T03:25:08.098Z,8.60
2022-12-20T03:27:36.479Z,7.97
2022-12-20T03:30:05.920Z,7.70
2022-12-20T03:32:35.853Z,7.13
2022-12-20T03:35:04.403Z,7.40
2022-12-20T03:37:33.031Z,6.53
2022-12-20T03:40:01.453Z,7.23
2022-12-20T03:42:29.714Z,6.63
2022-12-20T03:44:58.416Z,7.33
2022-12-20T03:47:27.008Z,7.10
2022-12-20T03:49:57.436Z,6.67
2022-12-20T03:52:29.029Z,6.23
2022-12-20T03:54:57.516Z,7.20
2022-12-20T03:57:25.902Z,6.73
2022-12-20T03:59:54.411Z,7.57
2022-12-20T04:02:23.287Z,7.70
2022-12-20T04:04:51.967Z,7.37
2022-12-20T04:07:24.848Z,7.50
2022-12-20T04:09:53.529Z,7.80
2022-12-20T04:12:22.215Z,7.67
2022-12-20T04:14:50.905Z,8.77
2022-12-20T04:17:19.719Z,8.47
2022-12-20T04:19:48.978Z,10.67
2022-12-20T04:22:17.548Z,8.53
2022-12-20T04:24:47.962Z,8.60
2022-12-20T04:27:16.451Z,9.57
2022-12-20T04:29:44.755Z,9.03
2022-12-20T04:32:13.200Z,7.67
2022-12-20T04:34:41.548Z,10.60
2022-12-20T04:37:10.189Z,9.60
2022-12-20T04:39:38.940Z,9.27
2022-12-20T04:42:09.021Z,8.77
2022-12-20T04:44:37.630Z,9.53
2022-12-20T04:47:06.389Z,9.60
2022-12-20T04:49:34.780Z,9.67
2022-12-20T04:52:17.052Z,8.70
2022-12-20T04:54:46.968Z,9.20
2022-12-20T04:57:16.813Z,9.57
2022-12-20T04:59:45.146Z,9.77
2022-12-20T05:02:39.174Z,10.13
2022-12-20T05:05:08.420Z,9.83
2022-12-20T05:07:36.696Z,10.20
2022-12-20T05:10:05.789Z,9.30
2022-12-20T05:12:35.568Z,8.70
2022-12-20T05:15:03.800Z,9.30
2022-12-20T05:17:32.143Z,9.70
2022-12-20T05:20:00.866Z,9.17
2022-12-20T05:22:54.706Z,9.07
2022-12-20T05:25:40.165Z,9.10
2022-12-20T05:28:09.942Z,14.17
2022-12-20T05:30:38.394Z,11.23
2022-12-20T05:33:34.223Z,10.53
2022-12-20T05:36:02.952Z,16.03
2022-12-20T05:38:31.343Z,14.20
2022-12-20T05:40:59.672Z,18.80
2022-12-20T05:43:29.385Z,39.30
2022-12-20T05:45:58.807Z,15.17
2022-12-20T05:48:27.188Z,10.53
2022-12-20T05:50:55.548Z,10.27
2022-12-20T05:53:23.932Z,10.17
2022-12-20T05:55:54.152Z,13.03
2022-12-20T05:58:22.857Z,13.10
2022-12-20T06:00:52.571Z,11.97
2022-12-20T06:03:21.058Z,12.70
2022-12-20T06:05:49.739Z,13.50
2022-12-20T06:08:18.206Z,27.07
2022-12-20T06:10:46.714Z,13.03
2022-12-20T06:13:15.058Z,12.30
2022-12-20T06:15:43.656Z,12.40
2022-12-20T06:18:13.854Z,12.97
2022-12-20T06:20:42.448Z,13.57
2022-12-20T06:23:11.028Z,15.13
2022-12-20T06:25:40.261Z,14.97
2022-12-20T06:28:08.810Z,17.20
2022-12-20T06:30:37.272Z,13.93
2022-12-20T06:33:06.150Z,14.20
2022-12-20T06:35:36.292Z,13.63
2022-12-20T06:38:05.080Z,14.60
2022-12-20T06:40:33.568Z,15.47
2022-12-20T06:43:01.942Z,18.67
2022-12-20T06:45:34.676Z,16.47
2022-12-20T06:48:06.695Z,17.23
2022-12-20T06:50:36.368Z,17.33
2022-12-20T06:53:04.698Z,13.60
2022-12-20T06:55:33.424Z,18.67
2022-12-20T06:58:01.815Z,25.10
2022-12-20T07:00:30.247Z,20.07
2022-12-20T07:02:58.966Z,13.03
2022-12-20T07:05:27.543Z,14.63
2022-12-20T07:07:57.177Z,18.50
2022-12-20T07:10:25.534Z,20.73
2022-12-20T07:13:05.803Z,18.53
2022-12-20T07:15:35.162Z,18.90
2022-12-20T07:18:03.726Z,20.60
2022-12-20T07:20:32.318Z,18.47
2022-12-20T07:23:03.110Z,19.93
2022-12-20T07:25:31.518Z,20.27
2022-12-20T07:28:00.014Z,20.50
2022-12-20T07:30:28.488Z,18.13
2022-12-20T07:33:02.725Z,15.90
2022-12-20T07:35:31.125Z,17.43
2022-12-20T07:37:59.591Z,17.27
2022-12-20T07:40:30.017Z,15.80
2022-12-20T07:43:23.992Z,16.60
2022-12-20T07:45:57.379Z,17.63
2022-12-20T07:48:26.559Z,16.90
2022-12-20T07:51:00.344Z,17.13
2022-12-20T07:53:30.205Z,16.30
2022-12-20T07:56:02.954Z,15.27
2022-12-20T07:58:32.495Z,15.27
2022-12-20T08:01:01.124Z,13.50
2022-12-20T08:03:57.827Z,14.40
2022-12-20T08:06:26.391Z,13.33
2022-12-20T08:08:58.921Z,14.37
2022-12-20T08:11:31.348Z,12.80
2022-12-20T08:14:24.264Z,13.60
2022-12-20T08:16:52.845Z,13.63
2022-12-20T08:19:47.607Z,14.77
2022-12-20T08:22:16.727Z,13.60
2022-12-20T08:24:45.353Z,13.00
2022-12-20T08:27:15.480Z,10.33
2022-12-20T08:29:43.777Z,12.47
2022-12-20T08:32:14.097Z,11.20
2022-12-20T08:34:42.295Z,11.70
2022-12-20T08:37:14.914Z,10.57
2022-12-20T08:39:50.551Z,10.73
2022-12-20T08:42:20.390Z,10.20
2022-12-20T08:44:48.709Z,10.67
2022-12-20T08:47:16.946Z,10.90
2022-12-20T08:49:47.830Z,13.87
2022-12-20T08:52:16.867Z,13.07
2022-12-20T08:54:45.751Z,11.03
2022-12-20T08:57:14.190Z,10.77
2022-12-20T08:59:44.250Z,12.63
2022-12-20T09:02:12.810Z,12.50
2022-12-20T09:04:41.532Z,15.50
2022-12-20T09:07:10.725Z,12.80
2022-12-20T09:09:45.588Z,12.07
2022-12-20T09:12:14.012Z,13.07
2022-12-20T09:14:44.004Z,12.63
2022-12-20T09:17:12.640Z,12.87
2022-12-20T09:19:41.168Z,12.33
2022-12-20T09:22:10.324Z,12.50
2022-12-20T09:24:39.327Z,12.67
2022-12-20T09:27:07.861Z,12.57
2022-12-20T09:29:36.370Z,12.07
2022-12-20T09:32:06.724Z,14.63
2022-12-20T09:34:35.191Z,12.43
2022-12-20T09:37:03.639Z,12.40
2022-12-20T09:39:32.189Z,15.53
2022-12-20T09:42:00.883Z,13.83
2022-12-20T09:44:31.798Z,13.80
2022-12-20T09:47:09.777Z,16.57
2022-12-20T09:49:44.800Z,11.80
2022-12-20T09:52:36.057Z,12.40
2022-12-20T09:55:15.283Z,12.13
2022-12-20T09:58:33.551Z,11.50
2022-12-20T10:01:25.349Z,11.97
2022-12-20T10:03:57.429Z,13.87
2022-12-20T10:06:38.524Z,12.80
2022-12-20T10:09:46.694Z,12.43
2022-12-20T10:12:25.049Z,11.83
2022-12-20T10:15:05.527Z,12.03
2022-12-20T10:17:59.465Z,11.33
2022-12-20T10:20:39.447Z,10.43
2022-12-20T10:23:17.862Z,10.10
2022-12-20T10:25:49.151Z,11.13
2022-12-20T10:28:18.497Z,11.00
2022-12-20T10:30:46.820Z,11.10
2022-12-20T10:33:29.037Z,11.20
2022-12-20T10:35:57.481Z,9.97
2022-12-20T10:38:45.975Z,10.70
2022-12-20T10:41:21.982Z,11.80
2022-12-20T10:43:56.758Z,10.70
2022-12-20T10:46:35.415Z,11.67
2022-12-20T10:50:11.038Z,10.30
2022-12-20T10:52:43.013Z,10.50
2022-12-20T10:55:43.982Z,10.80
2022-12-20T10:58:17.434Z,11.40
2022-12-20T11:00:46.629Z,10.57
2022-12-20T11:03:19.943Z,10.63
2022-12-20T11:05:57.787Z,10.33
2022-12-20T11:08:51.223Z,10.40
2022-12-20T11:11:25.771Z,11.20
2022-12-20T11:14:16.534Z,11.70
2022-12-20T11:16:48.336Z,10.00
2022-12-20T11:19:37.624Z,11.70
2022-12-20T11:22:21.061Z,11.00
2022-12-20T11:25:02.647Z,12.07
2022-12-20T11:27:39.615Z,11.00
2022-12-20T11:30:14.074Z,11.70
2022-12-20T11:33:22.945Z,12.93
2022-12-20T11:35:57.834Z,10.37
2022-12-20T11:38:55.502Z,9.90
2022-12-20T11:41:31.139Z,10.03
2022-12-20T11:44:27.465Z,11.13
2022-12-20T11:47:17.453Z,14.33
2022-12-20T11:50:11.466Z,16.93
2022-12-20T11:52:45.340Z,11.00
2022-12-20T11:55:21.847Z,10.77
2022-12-20T12:00:54.963Z,10.30
2022-12-20T12:03:30.581Z,9.23
2022-12-20T12:06:05.052Z,10.07
2022-12-20T12:08:42.648Z,10.67
2022-12-20T12:12:05.149Z,10.27
2022-12-20T12:14:27.319Z,9.57
2022-12-20T12:17:01.867Z,11.20
2022-12-20T12:19:32.953Z,11.67
2022-12-20T12:22:07.302Z,11.20
2022-12-20T12:24:41.336Z,9.73
2022-12-20T12:27:16.973Z,10.97
2022-12-20T12:29:45.600Z,10.63
2022-12-20T12:32:21.972Z,11.27
2022-12-20T12:35:10.229Z,13.13
2022-12-20T12:37:56.332Z,10.07
2022-12-20T12:40:54.205Z,10.03
2022-12-20T12:43:47.124Z,9.93
2022-12-20T12:46:19.532Z,10.47
2022-12-20T12:48:56.001Z,11.90
2022-12-20T12:51:29.351Z,11.63
2022-12-20T12:54:15.703Z,12.67
2022-12-20T12:56:47.516Z,11.27
2022-12-20T12:59:52.016Z,11.60
2022-12-20T13:02:36.584Z,11.27
2022-12-20T13:05:36.023Z,9.77
2022-12-20T13:08:05.553Z,16.80
2022-12-20T13:11:09.703Z,16.47
2022-12-20T13:13:44.274Z,12.80
2022-12-20T13:17:09.353Z,9.70
2022-12-20T13:19:31.807Z,11.83
2022-12-20T13:22:22.141Z,9.20
2022-12-20T13:24:58.401Z,9.53
2022-12-20T13:27:30.314Z,8.30
2022-12-20T13:30:28.710Z,11.53
2022-12-20T13:33:19.238Z,8.87
2022-12-20T13:36:06.399Z,9.80
2022-12-20T13:39:00.954Z,8.90
2022-12-20T13:41:37.535Z,8.57
2022-12-20T13:44:30.910Z,7.53
2022-12-20T13:47:07.413Z,7.60
2022-12-20T13:49:40.099Z,8.73
2022-12-20T13:52:17.675Z,13.73
2022-12-20T13:54:50.032Z,11.97
2022-12-20T13:57:45.158Z,9.97
2022-12-20T14:00:19.060Z,8.03
2022-12-20T14:02:48.278Z,15.30
2022-12-20T14:05:20.531Z,19.20
2022-12-20T14:07:53.680Z,16.63
2022-12-20T14:10:42.354Z,18.47
2022-12-20T14:13:22.947Z,13.67
2022-12-20T14:15:52.410Z,11.77
2022-12-20T14:18:22.901Z,8.90
2022-12-20T14:20:55.218Z,7.70
2022-12-20T14:23:26.361Z,8.47
2022-12-20T14:25:59.385Z,12.77
2022-12-20T14:28:40.546Z,18.77
2022-12-20T14:31:24.164Z,25.37
2022-12-20T14:33:53.303Z,17.60
2022-12-20T14:36:22.961Z,19.23
2022-12-20T14:38:53.426Z,15.37
2022-12-20T14:41:39.805Z,15.77
2022-12-20T14:44:18.962Z,10.30
2022-12-20T14:46:52.280Z,9.70
2022-12-20T14:49:25.032Z,8.30
2022-12-20T14:52:06.814Z,8.43
2022-12-20T14:57:30.337Z,12.10
2022-12-20T15:00:25.664Z,11.47
2022-12-20T15:03:18.527Z,12.77
2022-12-20T15:05:52.810Z,17.10
2022-12-20T15:08:24.126Z,14.17
2022-12-20T15:10:59.260Z,15.63
2022-12-20T15:13:33.000Z,14.53
2022-12-20T15:16:04.844Z,14.20
2022-12-20T15:18:36.566Z,15.23
2022-12-20T15:21:08.178Z,15.63
2022-12-20T15:23:36.927Z,14.03
2022-12-20T15:26:05.830Z,11.07
2022-12-20T15:28:36.839Z,10.43
2022-12-20T15:31:06.461Z,11.67
2022-12-20T15:33:36.944Z,11.57
2022-12-20T15:36:05.475Z,11.17
2022-12-20T15:39:03.436Z,13.13
2022-12-20T15:41:24.430Z,11.20
2022-12-20T15:43:57.861Z,11.80
2022-12-20T15:46:27.081Z,12.43
2022-12-20T15:48:55.985Z,14.17
2022-12-20T15:51:29.867Z,12.10
2022-12-20T15:53:58.616Z,12.87
2022-12-20T15:56:30.120Z,13.33
2022-12-20T15:59:00.183Z,12.83
2022-12-20T16:01:40.087Z,13.57
2022-12-20T16:04:14.594Z,12.70
2022-12-20T16:06:43.977Z,13.97
2022-12-20T16:09:12.768Z,14.63
2022-12-20T16:11:42.151Z,18.50
2022-12-20T16:14:17.347Z,14.30
2022-12-20T16:16:47.972Z,14.00
2022-12-20T16:19:16.931Z,14.63
2022-12-20T16:21:47.705Z,12.07
2022-12-20T16:24:18.503Z,12.77
2022-12-20T16:27:11.823Z,13.43
2022-12-20T16:30:09.821Z,15.03
2022-12-20T16:32:38.384Z,16.43
2022-12-20T16:35:07.891Z,14.73
2022-12-20T16:37:39.165Z,15.63
2022-12-20T16:40:09.302Z,14.63
2022-12-20T16:42:37.948Z,11.63
2022-12-20T16:45:13.644Z,12.47
2022-12-20T16:47:43.217Z,14.40
2022-12-20T16:50:13.459Z,13.17
2022-12-20T16:52:42.439Z,13.60
2022-12-20T16:55:16.750Z,13.37
2022-12-20T16:57:46.012Z,15.37
2022-12-20T17:00:25.250Z,13.63
2022-12-20T17:02:54.638Z,15.23
2022-12-20T17:05:27.731Z,12.97
2022-12-20T17:07:56.590Z,11.83
2022-12-20T17:10:27.056Z,10.63
2022-12-20T17:12:55.562Z,12.17
2022-12-20T17:15:31.964Z,11.50
2022-12-20T17:18:00.212Z,11.33
2022-12-20T17:20:35.028Z,21.03
2022-12-20T17:23:05.144Z,25.03
2022-12-20T17:25:37.402Z,24.40
2022-12-20T17:28:06.277Z,24.27
2022-12-20T17:30:35.964Z,20.23
2022-12-20T17:33:04.197Z,17.93
2022-12-20T17:35:34.070Z,16.17
2022-12-20T17:38:02.856Z,16.50
2022-12-20T17:40:31.123Z,24.10
2022-12-20T17:42:59.375Z,24.03
2022-12-20T17:45:30.641Z,14.77
2022-12-20T17:48:00.653Z,13.43
2022-12-20T17:51:02.820Z,12.97
2022-12-20T17:53:31.043Z,11.67
2022-12-20T17:55:59.228Z,14.10
2022-12-20T17:58:27.484Z,12.67
2022-12-20T18:00:55.748Z,12.03
2022-12-20T18:04:01.500Z,12.77
2022-12-20T18:06:13.596Z,11.57
2022-12-20T18:08:42.468Z,12.20
2022-12-20T18:11:19.431Z,12.23
2022-12-20T18:13:49.299Z,13.93
2022-12-20T18:16:20.373Z,14.50
2022-12-20T18:18:50.668Z,14.80
2022-12-20T18:21:21.039Z,15.27
2022-12-20T18:23:49.702Z,17.03
2022-12-20T18:26:20.798Z,31.67
2022-12-20T18:28:51.080Z,43.57
2022-12-20T18:31:21.484Z,30.03
2022-12-20T18:33:55.746Z,38.97
2022-12-20T18:36:28.915Z,25.90
2022-12-20T18:38:58.903Z,19.00
2022-12-20T18:41:29.803Z,16.40
2022-12-20T18:43:59.780Z,15.77
2022-12-20T18:46:33.329Z,15.30
2022-12-20T18:49:03.295Z,17.77
2022-12-20T18:51:37.062Z,15.37
2022-12-20T18:54:07.132Z,13.23
2022-12-20T18:56:38.570Z,16.43
2022-12-20T18:59:11.812Z,19.03
2022-12-20T19:01:42.664Z,16.20
2022-12-20T19:04:14.248Z,14.33
2022-12-20T19:06:43.736Z,12.20
2022-12-20T19:09:14.341Z,12.97
2022-12-20T19:11:43.094Z,12.67
2022-12-20T19:14:13.138Z,12.67
2022-12-20T19:16:42.026Z,12.40
2022-12-20T19:19:12.567Z,13.57
2022-12-20T19:21:43.028Z,14.20
2022-12-20T19:24:13.024Z,15.50
2022-12-20T19:26:41.864Z,14.77
2022-12-20T19:29:11.655Z,13.43
2022-12-20T19:31:40.051Z,13.73
2022-12-20T19:34:11.877Z,12.03
2022-12-20T19:36:43.766Z,12.73
2022-12-20T19:39:16.131Z,14.80
2022-12-20T19:41:54.847Z,14.97
2022-12-20T19:44:28.376Z,16.07
2022-12-20T19:46:56.714Z,16.40
2022-12-20T19:49:24.977Z,15.13
2022-12-20T19:51:54.625Z,14.43
2022-12-20T19:54:22.811Z,14.33
2022-12-20T19:56:51.087Z,14.27
2022-12-20T19:59:19.310Z,15.17
2022-12-20T20:01:47.632Z,20.20
2022-12-20T20:04:15.923Z,14.00
2022-12-20T20:06:44.194Z,14.00
2022-12-20T20:09:13.956Z,15.47
2022-12-20T20:11:42.202Z,16.77
2022-12-20T20:14:35.853Z,21.30
2022-12-20T20:17:04.121Z,26.23
2022-12-20T20:19:33.015Z,20.50
2022-12-20T20:22:01.247Z,19.10
2022-12-20T20:24:31.005Z,24.10
2022-12-20T20:26:59.332Z,21.40
2022-12-20T20:29:27.537Z,16.07
2022-12-20T20:31:55.752Z,16.37
2022-12-20T20:34:24.112Z,13.97
2022-12-20T20:37:17.625Z,13.60
2022-12-20T20:39:47.950Z,14.77
2022-12-20T20:42:21.528Z,14.80
2022-12-20T20:44:51.775Z,12.63
2022-12-20T20:47:20.623Z,12.80
2022-12-20T20:49:48.818Z,14.63
2022-12-20T20:52:41.728Z,12.70
2022-12-20T20:55:12.131Z,13.67
2022-12-20T20:57:40.437Z,14.50
2022-12-20T21:00:10.363Z,15.00
2022-12-20T21:02:38.799Z,13.13
2022-12-20T21:05:58.576Z,13.00
2022-12-20T21:07:56.133Z,14.77
2022-12-20T21:10:27.110Z,15.27
2022-12-20T21:12:55.693Z,13.27
2022-12-20T21:15:26.107Z,14.63
2022-12-20T21:17:54.420Z,14.93
2022-12-20T21:20:26.332Z,18.17
2022-12-20T21:22:55.133Z,17.23
2022-12-20T21:25:43.903Z,16.93
2022-12-20T21:28:17.687Z,14.73
2022-12-20T21:30:49.348Z,15.37
2022-12-20T21:33:17.658Z,13.63
2022-12-20T21:35:51.665Z,15.60
2022-12-20T21:38:22.461Z,14.00
2022-12-20T21:40:52.136Z,13.43
2022-12-20T21:43:20.339Z,13.13
2022-12-20T21:45:51.369Z,13.07
2022-12-20T21:48:19.612Z,15.20
2022-12-20T21:50:47.796Z,13.53
2022-12-20T21:53:19.572Z,13.73
2022-12-20T21:55:48.046Z,13.87
2022-12-20T21:58:17.704Z,14.83
2022-12-20T22:00:49.558Z,13.27
2022-12-20T22:03:23.732Z,15.03
2022-12-20T22:05:54.146Z,15.47
2022-12-20T22:08:30.388Z,15.13
2022-12-20T22:11:04.057Z,14.43
2022-12-20T22:13:40.654Z,13.90
2022-12-20T22:16:10.760Z,12.87
2022-12-20T22:18:39.520Z,13.03
2022-12-20T22:21:09.906Z,15.77
2022-12-20T22:23:38.513Z,12.57
2022-12-20T22:26:09.498Z,14.53
2022-12-20T22:28:39.893Z,12.73
2022-12-20T22:31:09.582Z,13.23
2022-12-20T22:33:38.957Z,13.20
2022-12-20T22:36:09.649Z,11.43
2022-12-20T22:38:37.953Z,13.50
2022-12-20T22:41:10.729Z,11.67
2022-12-20T22:43:43.032Z,11.10
2022-12-20T22:46:12.881Z,11.13
2022-12-20T22:48:42.091Z,11.53
2022-12-20T22:51:12.575Z,11.63
2022-12-20T22:53:41.495Z,11.10
2022-12-20T22:56:10.677Z,12.93
2022-12-20T22:58:41.374Z,12.37
2022-12-20T23:01:11.918Z,11.80
2022-12-20T23:03:40.634Z,13.57
2022-12-20T23:06:12.505Z,11.97
2022-12-20T23:08:40.859Z,11.10
2022-12-20T23:11:33.998Z,11.07
2022-12-20T23:14:21.855Z,11.20
2022-12-20T23:16:50.358Z,11.00
2022-12-20T23:20:25.962Z,10.03
2022-12-20T23:23:19.912Z,9.80
2022-12-20T23:25:56.931Z,11.90
2022-12-20T23:28:25.466Z,10.00
2022-12-20T23:30:55.027Z,10.43
2022-12-20T23:33:23.285Z,10.03
2022-12-20T23:35:57.585Z,10.10
2022-12-20T23:38:26.196Z,9.07
2022-12-20T23:40:54.477Z,9.93
2022-12-20T23:43:22.768Z,11.07
2022-12-20T23:45:51.255Z,10.97
2022-12-20T23:48:20.902Z,10.50
2022-12-20T23:50:56.864Z,10.63
2022-12-20T23:53:25.059Z,9.37
2022-12-20T23:55:58.781Z,10.00
2022-12-20T23:58:27.066Z,9.43
